sensor_id;sensor_type;location;lat;lon;timestamp;pressure;altitude;pressure_sealevel;temperature;humidity
7264;BME280;3673;52.480;13.348;2023-05-20T00:00:48;102179.47;;;18.14;44.70
7264;BME280;3673;52.480;13.348;2023-05-20T00:03:15;102185.75;;;18.04;45.13
7264;BME280;3673;52.480;13.348;2023-05-20T00:05:42;102183.94;;;18.09;44.93
7264;BME280;3673;52.480;13.348;2023-05-20T00:08:10;102180.41;;;18.09;45.11
7264;BME280;3673;52.480;13.348;2023-05-20T00:10:37;102182.22;;;18.04;45.10
7264;BME280;3673;52.480;13.348;2023-05-20T00:13:05;102192.84;;;18.00;45.23
7264;BME280;3673;52.480;13.348;2023-05-20T00:15:32;102185.88;;;17.89;45.30
7264;BME280;3673;52.480;13.348;2023-05-20T00:18:01;102185.00;;;17.85;45.71
7264;BME280;3673;52.480;13.348;2023-05-20T00:20:28;102184.13;;;17.86;45.58
7264;BME280;3673;52.480;13.348;2023-05-20T00:22:55;102178.91;;;17.77;45.66
7264;BME280;3673;52.480;13.348;2023-05-20T00:25:22;102179.91;;;17.61;46.26
7264;BME280;3673;52.480;13.348;2023-05-20T00:27:49;102180.81;;;17.56;46.42
7264;BME280;3673;52.480;13.348;2023-05-20T00:30:17;102178.94;;;17.68;46.22
7264;BME280;3673;52.480;13.348;2023-05-20T00:32:44;102179.88;;;17.67;46.53
7264;BME280;3673;52.480;13.348;2023-05-20T00:35:11;102175.44;;;17.65;46.58
7264;BME280;3673;52.480;13.348;2023-05-20T00:37:38;102172.84;;;17.60;46.64
7264;BME280;3673;52.480;13.348;2023-05-20T00:40:06;102164.84;;;17.65;46.59
7264;BME280;3673;52.480;13.348;2023-05-20T00:42:33;102171.09;;;17.53;46.92
7264;BME280;3673;52.480;13.348;2023-05-20T00:45:00;102188.69;;;17.68;46.69
7264;BME280;3673;52.480;13.348;2023-05-20T00:47:31;102184.34;;;17.50;46.86
7264;BME280;3673;52.480;13.348;2023-05-20T00:49:59;102188.03;;;17.26;47.55
7264;BME280;3673;52.480;13.348;2023-05-20T00:52:26;102181.81;;;17.32;47.86
7264;BME280;3673;52.480;13.348;2023-05-20T00:54:55;102186.13;;;17.49;47.29
7264;BME280;3673;52.480;13.348;2023-05-20T00:57:23;102180.84;;;17.51;47.35
7264;BME280;3673;52.480;13.348;2023-05-20T00:59:50;102184.38;;;17.47;47.61
7264;BME280;3673;52.480;13.348;2023-05-20T01:02:18;102184.44;;;17.35;47.85
7264;BME280;3673;52.480;13.348;2023-05-20T01:04:46;102184.34;;;17.58;47.45
7264;BME280;3673;52.480;13.348;2023-05-20T01:07:15;102174.63;;;17.60;47.48
7264;BME280;3673;52.480;13.348;2023-05-20T01:09:42;102165.91;;;17.35;48.07
7264;BME280;3673;52.480;13.348;2023-05-20T01:12:14;102167.59;;;17.48;47.88
7264;BME280;3673;52.480;13.348;2023-05-20T01:14:47;102172.06;;;17.44;48.35
7264;BME280;3673;52.480;13.348;2023-05-20T01:17:15;102174.63;;;17.54;48.02
7264;BME280;3673;52.480;13.348;2023-05-20T01:19:45;102168.50;;;17.47;48.39
7264;BME280;3673;52.480;13.348;2023-05-20T01:22:13;102163.19;;;17.48;48.24
7264;BME280;3673;52.480;13.348;2023-05-20T01:24:43;102162.28;;;17.48;48.50
7264;BME280;3673;52.480;13.348;2023-05-20T01:27:13;102162.41;;;17.31;48.94
7264;BME280;3673;52.480;13.348;2023-05-20T01:29:41;102166.03;;;17.15;49.41
7264;BME280;3673;52.480;13.348;2023-05-20T01:32:11;102166.94;;;17.10;49.67
7264;BME280;3673;52.480;13.348;2023-05-20T01:34:41;102164.22;;;17.22;49.44
7264;BME280;3673;52.480;13.348;2023-05-20T01:37:09;102160.81;;;17.00;50.14
7264;BME280;3673;52.480;13.348;2023-05-20T01:39:39;102148.50;;;16.96;49.88
7264;BME280;3673;52.480;13.348;2023-05-20T01:42:09;102151.16;;;16.94;50.19
7264;BME280;3673;52.480;13.348;2023-05-20T01:44:37;102149.41;;;16.86;50.25
7264;BME280;3673;52.480;13.348;2023-05-20T01:47:03;102144.97;;;16.92;50.22
7264;BME280;3673;52.480;13.348;2023-05-20T01:49:31;102143.22;;;16.97;50.21
7264;BME280;3673;52.480;13.348;2023-05-20T01:51:58;102154.66;;;16.99;50.27
7264;BME280;3673;52.480;13.348;2023-05-20T01:54:25;102148.56;;;16.84;50.71
7264;BME280;3673;52.480;13.348;2023-05-20T01:56:52;102148.47;;;16.99;50.19
7264;BME280;3673;52.480;13.348;2023-05-20T01:59:20;102143.28;;;16.81;51.04
7264;BME280;3673;52.480;13.348;2023-05-20T02:01:47;102141.53;;;16.80;50.93
7264;BME280;3673;52.480;13.348;2023-05-20T02:04:14;102145.03;;;16.86;50.70
7264;BME280;3673;52.480;13.348;2023-05-20T02:06:43;102145.06;;;16.71;50.97
7264;BME280;3673;52.480;13.348;2023-05-20T02:09:10;102151.22;;;16.81;50.79
7264;BME280;3673;52.480;13.348;2023-05-20T02:11:37;102144.13;;;16.89;50.72
7264;BME280;3673;52.480;13.348;2023-05-20T02:14:04;102140.59;;;16.93;50.71
7264;BME280;3673;52.480;13.348;2023-05-20T02:16:32;102138.84;;;16.86;50.98
7264;BME280;3673;52.480;13.348;2023-05-20T02:18:58;102137.06;;;16.91;50.77
7264;BME280;3673;52.480;13.348;2023-05-20T02:21:26;102137.06;;;16.85;50.91
7264;BME280;3673;52.480;13.348;2023-05-20T02:23:53;102145.06;;;16.77;51.21
7264;BME280;3673;52.480;13.348;2023-05-20T02:26:20;102138.00;;;16.81;51.18
7264;BME280;3673;52.480;13.348;2023-05-20T02:28:47;102145.97;;;16.66;51.62
7264;BME280;3673;52.480;13.348;2023-05-20T02:31:15;102136.19;;;16.86;51.04
7264;BME280;3673;52.480;13.348;2023-05-20T02:33:44;102135.31;;;16.88;50.96
7264;BME280;3673;52.480;13.348;2023-05-20T02:36:11;102134.44;;;16.86;50.88
7264;BME280;3673;52.480;13.348;2023-05-20T02:38:37;102138.91;;;16.72;51.29
7264;BME280;3673;52.480;13.348;2023-05-20T02:41:05;102142.44;;;16.68;51.57
7264;BME280;3673;52.480;13.348;2023-05-20T02:43:32;102135.44;;;16.64;51.51
7264;BME280;3673;52.480;13.348;2023-05-20T02:46:00;102148.59;;;16.78;51.26
7264;BME280;3673;52.480;13.348;2023-05-20T02:48:27;102141.47;;;16.89;50.87
7264;BME280;3673;52.480;13.348;2023-05-20T02:50:55;102149.38;;;16.96;50.72
7264;BME280;3673;52.480;13.348;2023-05-20T02:53:22;102148.47;;;17.04;50.54
7264;BME280;3673;52.480;13.348;2023-05-20T02:55:49;102138.81;;;16.96;50.69
7264;BME280;3673;52.480;13.348;2023-05-20T02:58:16;102146.81;;;16.84;50.96
7264;BME280;3673;52.480;13.348;2023-05-20T03:00:42;102149.41;;;16.93;50.90
7264;BME280;3673;52.480;13.348;2023-05-20T03:03:09;102150.41;;;16.59;51.46
7264;BME280;3673;52.480;13.348;2023-05-20T03:05:38;102151.16;;;16.90;50.88
7264;BME280;3673;52.480;13.348;2023-05-20T03:08:09;102155.53;;;16.95;50.72
7264;BME280;3673;52.480;13.348;2023-05-20T03:10:35;102156.41;;;16.99;50.66
7264;BME280;3673;52.480;13.348;2023-05-20T03:13:04;102164.28;;;17.08;50.45
7264;BME280;3673;52.480;13.348;2023-05-20T03:15:33;102165.22;;;17.04;50.58
7264;BME280;3673;52.480;13.348;2023-05-20T03:18:00;102159.94;;;17.01;50.44
7264;BME280;3673;52.480;13.348;2023-05-20T03:20:27;102163.50;;;16.94;50.90
7264;BME280;3673;52.480;13.348;2023-05-20T03:22:54;102167.06;;;16.87;51.02
7264;BME280;3673;52.480;13.348;2023-05-20T03:25:24;102163.44;;;17.08;50.64
7264;BME280;3673;52.480;13.348;2023-05-20T03:27:51;102168.72;;;17.05;50.81
7264;BME280;3673;52.480;13.348;2023-05-20T03:30:18;102158.19;;;17.00;50.86
7264;BME280;3673;52.480;13.348;2023-05-20T03:32:44;102164.38;;;16.93;50.95
7264;BME280;3673;52.480;13.348;2023-05-20T03:35:11;102167.88;;;16.99;50.77
7264;BME280;3673;52.480;13.348;2023-05-20T03:37:38;102163.47;;;16.97;50.87
7264;BME280;3673;52.480;13.348;2023-05-20T03:40:07;102161.72;;;16.97;50.95
7264;BME280;3673;52.480;13.348;2023-05-20T03:42:36;102161.78;;;16.79;51.27
7264;BME280;3673;52.480;13.348;2023-05-20T03:45:04;102167.09;;;16.73;51.57
7264;BME280;3673;52.480;13.348;2023-05-20T03:47:31;102167.94;;;16.87;51.15
7264;BME280;3673;52.480;13.348;2023-05-20T03:49:58;102164.44;;;16.76;51.71
7264;BME280;3673;52.480;13.348;2023-05-20T03:52:25;102174.16;;;16.62;52.13
7264;BME280;3673;52.480;13.348;2023-05-20T03:54:52;102160.06;;;16.66;51.87
7264;BME280;3673;52.480;13.348;2023-05-20T03:57:19;102169.75;;;16.70;51.82
7264;BME280;3673;52.480;13.348;2023-05-20T03:59:47;102168.88;;;16.74;51.55
7264;BME280;3673;52.480;13.348;2023-05-20T04:02:14;102173.22;;;16.78;51.54
7264;BME280;3673;52.480;13.348;2023-05-20T04:04:41;102174.13;;;16.80;51.44
7264;BME280;3673;52.480;13.348;2023-05-20T04:07:08;102167.13;;;16.64;51.88
7264;BME280;3673;52.480;13.348;2023-05-20T04:09:36;102174.16;;;16.52;52.37
7264;BME280;3673;52.480;13.348;2023-05-20T04:12:04;102168.84;;;16.68;51.98
7264;BME280;3673;52.480;13.348;2023-05-20T04:14:32;102167.03;;;16.88;51.61
7264;BME280;3673;52.480;13.348;2023-05-20T04:17:02;102159.16;;;16.81;51.66
7264;BME280;3673;52.480;13.348;2023-05-20T04:19:29;102160.06;;;16.71;51.83
7264;BME280;3673;52.480;13.348;2023-05-20T04:21:56;102158.19;;;16.97;51.36
7264;BME280;3673;52.480;13.348;2023-05-20T04:24:24;102156.38;;;17.05;51.14
7264;BME280;3673;52.480;13.348;2023-05-20T04:26:52;102164.31;;;17.07;51.04
7264;BME280;3673;52.480;13.348;2023-05-20T04:29:19;102161.78;;;16.82;51.49
7264;BME280;3673;52.480;13.348;2023-05-20T04:31:47;102160.88;;;16.91;51.37
7264;BME280;3673;52.480;13.348;2023-05-20T04:34:15;102159.09;;;16.93;51.54
7264;BME280;3673;52.480;13.348;2023-05-20T04:36:44;102158.22;;;16.94;51.44
7264;BME280;3673;52.480;13.348;2023-05-20T04:39:11;102165.19;;;17.09;51.13
7264;BME280;3673;52.480;13.348;2023-05-20T04:41:40;102166.94;;;17.13;51.04
7264;BME280;3673;52.480;13.348;2023-05-20T04:44:06;102167.72;;;17.25;50.87
7264;BME280;3673;52.480;13.348;2023-05-20T04:46:34;102165.22;;;16.99;51.44
7264;BME280;3673;52.480;13.348;2023-05-20T04:49:00;102176.66;;;17.06;51.37
7264;BME280;3673;52.480;13.348;2023-05-20T04:51:30;102170.53;;;16.95;51.70
7264;BME280;3673;52.480;13.348;2023-05-20T04:53:57;102176.59;;;17.15;51.17
7264;BME280;3673;52.480;13.348;2023-05-20T04:56:24;102166.97;;;17.02;51.72
7264;BME280;3673;52.480;13.348;2023-05-20T04:58:51;102159.97;;;16.93;51.95
7264;BME280;3673;52.480;13.348;2023-05-20T05:01:18;102165.25;;;17.01;51.72
7264;BME280;3673;52.480;13.348;2023-05-20T05:03:46;102168.72;;;17.06;51.64
7264;BME280;3673;52.480;13.348;2023-05-20T05:06:12;102164.28;;;17.08;51.80
7264;BME280;3673;52.480;13.348;2023-05-20T05:08:40;102161.69;;;17.04;51.72
7264;BME280;3673;52.480;13.348;2023-05-20T05:11:07;102165.16;;;17.12;51.52
7264;BME280;3673;52.480;13.348;2023-05-20T05:13:34;102157.31;;;17.01;52.06
7264;BME280;3673;52.480;13.348;2023-05-20T05:16:01;102159.88;;;17.10;51.84
7264;BME280;3673;52.480;13.348;2023-05-20T05:18:28;102158.94;;;17.19;51.54
7264;BME280;3673;52.480;13.348;2023-05-20T05:21:00;102158.91;;;17.25;51.33
7264;BME280;3673;52.480;13.348;2023-05-20T05:23:27;102162.47;;;17.22;51.47
7264;BME280;3673;52.480;13.348;2023-05-20T05:25:55;102158.88;;;17.34;51.22
7264;BME280;3673;52.480;13.348;2023-05-20T05:28:23;102159.91;;;17.03;52.08
7264;BME280;3673;52.480;13.348;2023-05-20T05:30:52;102154.66;;;16.99;52.14
7264;BME280;3673;52.480;13.348;2023-05-20T05:33:19;102157.09;;;17.31;51.54
7264;BME280;3673;52.480;13.348;2023-05-20T05:35:46;102160.69;;;17.21;52.06
7264;BME280;3673;52.480;13.348;2023-05-20T05:38:13;102166.00;;;17.18;51.99
7264;BME280;3673;52.480;13.348;2023-05-20T05:40:40;102158.06;;;17.24;52.10
7264;BME280;3673;52.480;13.348;2023-05-20T05:43:08;102151.91;;;17.16;52.34
7264;BME280;3673;52.480;13.348;2023-05-20T05:45:35;102144.94;;;17.03;52.71
7264;BME280;3673;52.480;13.348;2023-05-20T05:48:01;102159.75;;;17.31;51.97
7264;BME280;3673;52.480;13.348;2023-05-20T05:50:28;102154.44;;;17.40;51.69
7264;BME280;3673;52.480;13.348;2023-05-20T05:52:55;102151.75;;;17.43;51.96
7264;BME280;3673;52.480;13.348;2023-05-20T05:55:22;102150.13;;;17.20;52.59
7264;BME280;3673;52.480;13.348;2023-05-20T05:57:49;102140.41;;;17.26;52.50
7264;BME280;3673;52.480;13.348;2023-05-20T06:00:19;102150.06;;;17.33;52.18
7264;BME280;3673;52.480;13.348;2023-05-20T06:02:46;102146.44;;;17.46;51.98
7264;BME280;3673;52.480;13.348;2023-05-20T06:05:12;102149.94;;;17.58;51.61
7264;BME280;3673;52.480;13.348;2023-05-20T06:07:39;102141.09;;;17.54;51.80
7264;BME280;3673;52.480;13.348;2023-05-20T06:10:08;102143.75;;;17.56;51.94
7264;BME280;3673;52.480;13.348;2023-05-20T06:12:35;102132.34;;;17.43;52.45
7264;BME280;3673;52.480;13.348;2023-05-20T06:15:02;102134.03;;;17.59;51.89
7264;BME280;3673;52.480;13.348;2023-05-20T06:17:30;102121.69;;;17.60;52.17
7264;BME280;3673;52.480;13.348;2023-05-20T06:19:57;102137.56;;;17.54;52.36
7264;BME280;3673;52.480;13.348;2023-05-20T06:22:24;102132.31;;;17.50;52.41
7264;BME280;3673;52.480;13.348;2023-05-20T06:24:52;102140.31;;;17.40;52.87
7264;BME280;3673;52.480;13.348;2023-05-20T06:27:21;102140.31;;;17.38;52.78
7264;BME280;3673;52.480;13.348;2023-05-20T06:29:51;102137.66;;;17.44;52.58
7264;BME280;3673;52.480;13.348;2023-05-20T06:32:18;102139.28;;;17.67;52.19
7264;BME280;3673;52.480;13.348;2023-05-20T06:34:49;102145.38;;;17.76;52.01
7264;BME280;3673;52.480;13.348;2023-05-20T06:37:17;102142.94;;;17.44;52.75
7264;BME280;3673;52.480;13.348;2023-05-20T06:39:43;102146.38;;;17.59;52.63
7264;BME280;3673;52.480;13.348;2023-05-20T06:42:12;102155.00;;;17.88;51.74
7264;BME280;3673;52.480;13.348;2023-05-20T06:44:38;102152.50;;;17.67;51.98
7264;BME280;3673;52.480;13.348;2023-05-20T06:47:06;102149.06;;;17.57;52.53
7264;BME280;3673;52.480;13.348;2023-05-20T06:49:32;102149.84;;;17.70;52.13
7264;BME280;3673;52.480;13.348;2023-05-20T06:52:00;102152.41;;;17.80;52.15
7264;BME280;3673;52.480;13.348;2023-05-20T06:54:27;102155.94;;;17.79;52.23
7264;BME280;3673;52.480;13.348;2023-05-20T06:56:54;102149.81;;;17.73;52.37
7264;BME280;3673;52.480;13.348;2023-05-20T06:59:21;102146.28;;;17.74;51.98
7264;BME280;3673;52.480;13.348;2023-05-20T07:01:48;102142.59;;;17.88;51.74
7264;BME280;3673;52.480;13.348;2023-05-20T07:04:15;102152.47;;;17.73;52.36
7264;BME280;3673;52.480;13.348;2023-05-20T07:06:42;102151.31;;;18.02;51.71
7264;BME280;3673;52.480;13.348;2023-05-20T07:09:10;102145.97;;;18.09;51.64
7264;BME280;3673;52.480;13.348;2023-05-20T07:11:39;102142.50;;;18.02;51.66
7264;BME280;3673;52.480;13.348;2023-05-20T07:14:06;102141.31;;;18.33;50.82
7264;BME280;3673;52.480;13.348;2023-05-20T07:16:33;102134.41;;;18.16;51.61
7264;BME280;3673;52.480;13.348;2023-05-20T07:19:02;102142.25;;;18.26;51.03
7264;BME280;3673;52.480;13.348;2023-05-20T07:21:28;102128.88;;;18.40;50.71
7264;BME280;3673;52.480;13.348;2023-05-20T07:23:56;102131.47;;;18.41;50.56
7264;BME280;3673;52.480;13.348;2023-05-20T07:26:24;102134.97;;;18.45;50.54
7264;BME280;3673;52.480;13.348;2023-05-20T07:28:50;102128.00;;;18.39;50.59
7264;BME280;3673;52.480;13.348;2023-05-20T07:31:17;102123.72;;;18.28;50.84
7264;BME280;3673;52.480;13.348;2023-05-20T07:33:44;102120.19;;;18.27;50.92
7264;BME280;3673;52.480;13.348;2023-05-20T07:36:11;102113.00;;;18.37;50.85
7264;BME280;3673;52.480;13.348;2023-05-20T07:38:38;102116.69;;;18.24;51.20
7264;BME280;3673;52.480;13.348;2023-05-20T07:41:07;102121.72;;;18.51;50.22
7264;BME280;3673;52.480;13.348;2023-05-20T07:43:38;102110.19;;;18.54;49.95
7264;BME280;3673;52.480;13.348;2023-05-20T07:46:05;102110.97;;;18.65;49.57
7264;BME280;3673;52.480;13.348;2023-05-20T07:48:32;102115.13;;;18.84;49.40
7264;BME280;3673;52.480;13.348;2023-05-20T07:50:59;102112.44;;;18.87;49.25
7264;BME280;3673;52.480;13.348;2023-05-20T07:53:26;102109.75;;;18.88;49.21
7264;BME280;3673;52.480;13.348;2023-05-20T07:55:53;102111.72;;;18.73;49.24
7264;BME280;3673;52.480;13.348;2023-05-20T07:58:21;102106.28;;;18.82;49.08
7264;BME280;3673;52.480;13.348;2023-05-20T08:00:49;102101.50;;;19.11;48.34
7264;BME280;3673;52.480;13.348;2023-05-20T08:03:16;102101.31;;;19.22;48.33
7264;BME280;3673;52.480;13.348;2023-05-20T08:05:44;102105.88;;;19.12;48.45
7264;BME280;3673;52.480;13.348;2023-05-20T08:08:11;102101.13;;;19.34;47.82
7264;BME280;3673;52.480;13.348;2023-05-20T08:10:37;102099.97;;;19.53;47.38
7264;BME280;3673;52.480;13.348;2023-05-20T08:13:04;102100.00;;;19.51;47.42
7264;BME280;3673;52.480;13.348;2023-05-20T08:15:32;102098.31;;;19.46;47.52
7264;BME280;3673;52.480;13.348;2023-05-20T08:18:00;102100.09;;;19.47;47.48
7264;BME280;3673;52.480;13.348;2023-05-20T08:20:28;102090.19;;;19.55;47.32
7264;BME280;3673;52.480;13.348;2023-05-20T08:22:58;102096.47;;;19.51;47.39
7264;BME280;3673;52.480;13.348;2023-05-20T08:25:26;102092.69;;;19.66;46.92
7264;BME280;3673;52.480;13.348;2023-05-20T08:27:54;102094.84;;;19.94;46.10
7264;BME280;3673;52.480;13.348;2023-05-20T08:30:21;102087.09;;;19.82;46.18
7264;BME280;3673;52.480;13.348;2023-05-20T08:32:48;102076.13;;;20.00;46.20
7264;BME280;3673;52.480;13.348;2023-05-20T08:35:19;102081.63;;;19.90;46.20
7264;BME280;3673;52.480;13.348;2023-05-20T08:37:46;102077.09;;;19.96;46.16
7264;BME280;3673;52.480;13.348;2023-05-20T08:40:13;102074.19;;;20.09;46.05
7264;BME280;3673;52.480;13.348;2023-05-20T08:42:41;102069.59;;;19.69;47.04
7264;BME280;3673;52.480;13.348;2023-05-20T08:45:10;102070.31;;;19.80;46.74
7264;BME280;3673;52.480;13.348;2023-05-20T08:47:41;102071.66;;;20.02;46.08
7264;BME280;3673;52.480;13.348;2023-05-20T08:50:10;102072.97;;;19.80;46.62
7264;BME280;3673;52.480;13.348;2023-05-20T08:52:42;102070.72;;;20.05;46.37
7264;BME280;3673;52.480;13.348;2023-05-20T08:55:14;102073.22;;;20.14;46.21
7264;BME280;3673;52.480;13.348;2023-05-20T08:57:42;102074.66;;;20.32;45.59
7264;BME280;3673;52.480;13.348;2023-05-20T09:00:12;102078.53;;;20.14;46.01
7264;BME280;3673;52.480;13.348;2023-05-20T09:02:42;102073.94;;;20.22;45.82
7264;BME280;3673;52.480;13.348;2023-05-20T09:05:09;102078.28;;;20.26;45.64
7264;BME280;3673;52.480;13.348;2023-05-20T09:07:38;102075.97;;;20.10;46.00
7264;BME280;3673;52.480;13.348;2023-05-20T09:10:08;102074.25;;;20.05;46.24
7264;BME280;3673;52.480;13.348;2023-05-20T09:12:38;102085.66;;;20.12;46.12
7264;BME280;3673;52.480;13.348;2023-05-20T09:15:07;102075.44;;;19.91;46.79
7264;BME280;3673;52.480;13.348;2023-05-20T09:17:34;102077.16;;;19.93;46.64
7264;BME280;3673;52.480;13.348;2023-05-20T09:20:09;102074.06;;;20.16;46.40
7264;BME280;3673;52.480;13.348;2023-05-20T09:22:39;102071.31;;;20.21;46.09
7264;BME280;3673;52.480;13.348;2023-05-20T09:25:09;102063.50;;;20.13;46.13
7264;BME280;3673;52.480;13.348;2023-05-20T09:27:39;102060.81;;;20.15;46.21
7264;BME280;3673;52.480;13.348;2023-05-20T09:30:07;102066.22;;;20.09;46.58
7264;BME280;3673;52.480;13.348;2023-05-20T09:32:37;102061.50;;;20.24;46.17
7264;BME280;3673;52.480;13.348;2023-05-20T09:35:05;102066.69;;;20.32;46.13
7264;BME280;3673;52.480;13.348;2023-05-20T09:37:33;102064.97;;;20.29;46.19
7264;BME280;3673;52.480;13.348;2023-05-20T09:40:05;102069.88;;;20.03;46.90
7264;BME280;3673;52.480;13.348;2023-05-20T09:42:39;102070.41;;;20.22;46.37
7264;BME280;3673;52.480;13.348;2023-05-20T09:45:08;102072.94;;;20.31;46.00
7264;BME280;3673;52.480;13.348;2023-05-20T09:47:37;102071.50;;;20.56;45.84
7264;BME280;3673;52.480;13.348;2023-05-20T09:50:07;102070.91;;;20.42;45.84
7264;BME280;3673;52.480;13.348;2023-05-20T09:52:35;102076.75;;;20.61;45.47
7264;BME280;3673;52.480;13.348;2023-05-20T09:55:05;102070.19;;;20.75;45.24
7264;BME280;3673;52.480;13.348;2023-05-20T09:57:33;102061.69;;;20.60;45.42
7264;BME280;3673;52.480;13.348;2023-05-20T10:00:02;102063.59;;;20.53;45.26
7264;BME280;3673;52.480;13.348;2023-05-20T10:02:29;102071.50;;;20.56;45.45
7264;BME280;3673;52.480;13.348;2023-05-20T10:04:58;102059.63;;;20.31;45.96
7264;BME280;3673;52.480;13.348;2023-05-20T10:10:32;102060.03;;;20.54;45.72
7264;BME280;3673;52.480;13.348;2023-05-20T10:13:21;102059.59;;;20.32;46.02
7264;BME280;3673;52.480;13.348;2023-05-20T10:16:02;102056.81;;;20.38;46.25
7264;BME280;3673;52.480;13.348;2023-05-20T10:18:55;102052.50;;;20.33;46.42
7264;BME280;3673;52.480;13.348;2023-05-20T10:21:24;102047.50;;;20.59;46.04
7264;BME280;3673;52.480;13.348;2023-05-20T10:23:51;102047.88;;;20.82;45.48
7264;BME280;3673;52.480;13.348;2023-05-20T10:26:22;102053.53;;;21.07;44.81
7264;BME280;3673;52.480;13.348;2023-05-20T10:28:49;102059.44;;;20.81;45.22
7264;BME280;3673;52.480;13.348;2023-05-20T10:31:21;102050.41;;;20.88;45.15
7264;BME280;3673;52.480;13.348;2023-05-20T10:33:53;102051.09;;;20.98;45.18
7264;BME280;3673;52.480;13.348;2023-05-20T10:36:25;102052.97;;;20.93;45.16
7264;BME280;3673;52.480;13.348;2023-05-20T10:38:53;102041.91;;;20.73;45.35
7264;BME280;3673;52.480;13.348;2023-05-20T10:41:25;102045.13;;;21.25;44.63
7264;BME280;3673;52.480;13.348;2023-05-20T10:44:01;102025.25;;;21.74;43.47
7264;BME280;3673;52.480;13.348;2023-05-20T10:46:29;102029.16;;;22.25;42.09
7264;BME280;3673;52.480;13.348;2023-05-20T10:48:56;102024.81;;;22.52;41.37
7264;BME280;3673;52.480;13.348;2023-05-20T10:51:24;102029.84;;;22.63;40.91
7264;BME280;3673;52.480;13.348;2023-05-20T10:53:56;102029.84;;;22.33;41.13
7264;BME280;3673;52.480;13.348;2023-05-20T10:56:26;102023.31;;;22.43;41.22
7264;BME280;3673;52.480;13.348;2023-05-20T10:58:54;102023.44;;;22.39;41.18
7264;BME280;3673;52.480;13.348;2023-05-20T11:01:24;102021.00;;;22.61;40.73
7264;BME280;3673;52.480;13.348;2023-05-20T11:03:54;102024.66;;;22.58;40.75
7264;BME280;3673;52.480;13.348;2023-05-20T11:06:26;102010.19;;;22.67;40.80
7264;BME280;3673;52.480;13.348;2023-05-20T11:08:54;102012.09;;;22.62;40.75
7264;BME280;3673;52.480;13.348;2023-05-20T11:11:22;102003.78;;;22.72;40.43
7264;BME280;3673;52.480;13.348;2023-05-20T11:13:56;101996.84;;;22.67;40.64
7264;BME280;3673;52.480;13.348;2023-05-20T11:16:23;101999.91;;;22.82;40.33
7264;BME280;3673;52.480;13.348;2023-05-20T11:18:50;102005.53;;;23.55;39.21
7264;BME280;3673;52.480;13.348;2023-05-20T11:21:18;101996.63;;;24.04;38.24
7264;BME280;3673;52.480;13.348;2023-05-20T11:23:50;102006.78;;;24.42;37.80
7264;BME280;3673;52.480;13.348;2023-05-20T11:26:17;101986.75;;;25.41;36.01
7264;BME280;3673;52.480;13.348;2023-05-20T11:28:44;101993.31;;;26.35;33.64
7264;BME280;3673;52.480;13.348;2023-05-20T11:31:13;101986.25;;;25.53;34.70
7264;BME280;3673;52.480;13.348;2023-05-20T11:33:40;101982.50;;;25.15;35.66
7264;BME280;3673;52.480;13.348;2023-05-20T11:36:08;101990.28;;;24.76;36.69
7264;BME280;3673;52.480;13.348;2023-05-20T11:38:36;101994.91;;;24.73;36.65
7264;BME280;3673;52.480;13.348;2023-05-20T11:41:02;101993.34;;;24.67;36.86
7264;BME280;3673;52.480;13.348;2023-05-20T11:43:32;101994.28;;;24.43;37.02
7264;BME280;3673;52.480;13.348;2023-05-20T11:45:59;101989.41;;;24.54;37.32
7264;BME280;3673;52.480;13.348;2023-05-20T11:48:28;101981.22;;;25.24;35.70
7264;BME280;3673;52.480;13.348;2023-05-20T11:50:55;101981.06;;;25.48;35.31
7264;BME280;3673;52.480;13.348;2023-05-20T11:53:23;101974.78;;;26.29;33.98
7264;BME280;3673;52.480;13.348;2023-05-20T11:55:54;101975.38;;;26.35;33.68
7264;BME280;3673;52.480;13.348;2023-05-20T11:58:23;101982.88;;;26.85;32.53
7264;BME280;3673;52.480;13.348;2023-05-20T12:00:51;101970.66;;;27.13;32.22
7264;BME280;3673;52.480;13.348;2023-05-20T12:03:19;101978.63;;;27.68;31.53
7264;BME280;3673;52.480;13.348;2023-05-20T12:05:48;101970.75;;;27.98;30.75
7264;BME280;3673;52.480;13.348;2023-05-20T12:08:16;101966.00;;;27.86;31.21
7264;BME280;3673;52.480;13.348;2023-05-20T12:10:43;101953.13;;;27.41;32.01
7264;BME280;3673;52.480;13.348;2023-05-20T12:13:10;101943.66;;;27.34;32.09
7264;BME280;3673;52.480;13.348;2023-05-20T12:15:38;101939.03;;;27.36;32.15
7264;BME280;3673;52.480;13.348;2023-05-20T12:18:05;101940.03;;;26.63;32.90
7264;BME280;3673;52.480;13.348;2023-05-20T12:20:32;101943.53;;;26.28;33.52
7264;BME280;3673;52.480;13.348;2023-05-20T12:23:00;101935.78;;;26.76;32.61
7264;BME280;3673;52.480;13.348;2023-05-20T12:25:27;101934.66;;;27.52;31.70
7264;BME280;3673;52.480;13.348;2023-05-20T12:27:55;101929.75;;;27.93;31.37
7264;BME280;3673;52.480;13.348;2023-05-20T12:30:23;101928.69;;;28.12;31.02
7264;BME280;3673;52.480;13.348;2023-05-20T12:32:50;101910.13;;;28.39;30.59
7264;BME280;3673;52.480;13.348;2023-05-20T12:35:24;101923.75;;;28.36;30.70
7264;BME280;3673;52.480;13.348;2023-05-20T12:37:52;101918.00;;;27.78;31.12
7264;BME280;3673;52.480;13.348;2023-05-20T12:40:21;101922.91;;;27.70;31.84
7264;BME280;3673;52.480;13.348;2023-05-20T12:42:48;101914.63;;;27.90;31.44
7264;BME280;3673;52.480;13.348;2023-05-20T12:45:17;101917.09;;;28.28;30.40
7264;BME280;3673;52.480;13.348;2023-05-20T12:47:44;101914.75;;;28.22;30.74
7264;BME280;3673;52.480;13.348;2023-05-20T12:50:14;101899.28;;;28.41;30.19
7264;BME280;3673;52.480;13.348;2023-05-20T12:52:41;101895.78;;;28.54;29.90
7264;BME280;3673;52.480;13.348;2023-05-20T12:55:08;101897.44;;;28.26;30.58
7264;BME280;3673;52.480;13.348;2023-05-20T12:57:43;101885.72;;;28.42;30.57
7264;BME280;3673;52.480;13.348;2023-05-20T13:00:12;101902.16;;;28.22;30.76
7264;BME280;3673;52.480;13.348;2023-05-20T13:02:41;101893.84;;;27.27;32.04
7264;BME280;3673;52.480;13.348;2023-05-20T13:05:09;101895.03;;;27.38;31.86
7264;BME280;3673;52.480;13.348;2023-05-20T13:07:36;101888.84;;;27.53;31.51